createdAt,value
2023-03-29T00:00:35.460Z,3.900
2023-03-29T00:01:45.903Z,4.500
2023-03-29T00:03:36.921Z,4.500
2023-03-29T00:04:35.949Z,4.100
2023-03-29T00:05:36.273Z,4.000
2023-03-29T00:06:35.477Z,4.100
2023-03-29T00:07:35.631Z,4.700
2023-03-29T00:08:35.796Z,4.900
2023-03-29T00:09:35.978Z,4.800
2023-03-29T00:10:36.284Z,4.200
2023-03-29T00:11:35.461Z,4.900
2023-03-29T00:12:35.735Z,4.700
2023-03-29T00:13:35.944Z,5.300
2023-03-29T00:14:36.079Z,4.900
2023-03-29T00:15:36.383Z,5.000
2023-03-29T00:16:35.740Z,5.000
2023-03-29T00:17:35.957Z,5.600
2023-03-29T00:18:36.272Z,5.000
2023-03-29T00:19:35.522Z,5.000
2023-03-29T00:20:35.689Z,4.900
2023-03-29T00:21:36.468Z,5.000
2023-03-29T00:22:35.649Z,5.000
2023-03-29T00:23:35.838Z,5.600
2023-03-29T00:24:36.013Z,5.100
2023-03-29T00:25:36.261Z,5.900
2023-03-29T00:26:35.389Z,5.200
2023-03-29T00:27:35.517Z,5.200
2023-03-29T00:28:35.675Z,5.300
2023-03-29T00:29:35.833Z,5.200
2023-03-29T00:30:36.137Z,5.500
2023-03-29T00:31:35.584Z,5.700
2023-03-29T00:32:35.903Z,5.200
2023-03-29T00:33:36.288Z,5.600
2023-03-29T00:34:35.452Z,5.400
2023-03-29T00:35:35.863Z,5.600
2023-03-29T00:36:36.304Z,6.000
2023-03-29T00:37:35.505Z,5.800
2023-03-29T00:38:35.630Z,5.500
2023-03-29T00:39:35.746Z,5.900
2023-03-29T00:40:35.952Z,5.200
2023-03-29T00:41:36.387Z,5.600
2023-03-29T00:42:35.615Z,5.100
2023-03-29T00:43:35.875Z,6.100
2023-03-29T00:44:36.104Z,5.900
2023-03-29T00:45:36.319Z,5.400
2023-03-29T00:46:35.588Z,5.800
2023-03-29T00:47:36.089Z,5.300
2023-03-29T00:48:35.440Z,5.900
2023-03-29T00:49:35.700Z,5.500
2023-03-29T00:50:35.893Z,5.500
2023-03-29T00:51:36.484Z,5.800
2023-03-29T00:52:35.673Z,5.200
2023-03-29T00:53:35.833Z,5.900
2023-03-29T00:54:36.068Z,6.000
2023-03-29T00:55:36.228Z,5.500
2023-03-29T00:56:35.454Z,6.100
2023-03-29T00:57:36.037Z,5.200
2023-03-29T00:58:36.220Z,5.300
2023-03-29T00:59:35.470Z,5.900
2023-03-29T01:00:35.725Z,6.200
2023-03-29T01:01:36.242Z,5.300
2023-03-29T01:02:35.586Z,5.900
2023-03-29T01:03:36.444Z,5.100
2023-03-29T01:04:35.952Z,6.100
2023-03-29T01:05:36.080Z,6.200
2023-03-29T01:06:35.712Z,5.800
2023-03-29T01:07:36.027Z,5.300
2023-03-29T01:08:36.225Z,6.000
2023-03-29T01:09:35.400Z,5.900
2023-03-29T01:10:35.884Z,6.600
2023-03-29T01:11:36.403Z,5.900
2023-03-29T01:12:35.576Z,5.500
2023-03-29T01:13:35.738Z,5.800
2023-03-29T01:14:36.011Z,5.800
2023-03-29T01:15:36.177Z,5.400
2023-03-29T01:16:35.501Z,6.000
2023-03-29T01:17:35.808Z,6.100
2023-03-29T01:18:36.172Z,6.300
2023-03-29T01:19:35.372Z,5.300
2023-03-29T01:20:35.889Z,5.700
2023-03-29T01:21:36.616Z,5.400
2023-03-29T01:22:35.696Z,5.600
2023-03-29T01:23:35.802Z,5.800
2023-03-29T01:24:36.117Z,5.800
2023-03-29T01:25:36.276Z,6.000
2023-03-29T01:26:35.556Z,5.500
2023-03-29T01:27:35.765Z,5.400
2023-03-29T01:28:35.884Z,5.500
2023-03-29T01:29:36.045Z,5.700
2023-03-29T01:30:36.324Z,6.000
2023-03-29T01:31:35.604Z,5.100
2023-03-29T01:32:35.895Z,5.900
2023-03-29T01:33:36.186Z,5.700
2023-03-29T01:34:35.327Z,5.400
2023-03-29T01:35:35.645Z,6.300
2023-03-29T01:36:36.224Z,5.700
2023-03-29T01:37:35.347Z,5.500
2023-03-29T01:38:35.544Z,6.200
2023-03-29T01:39:35.683Z,6.000
2023-03-29T01:40:36.134Z,5.700
2023-03-29T01:41:35.351Z,5.800
2023-03-29T01:42:35.580Z,5.600
2023-03-29T01:43:35.787Z,5.000
2023-03-29T01:44:35.887Z,5.700
2023-03-29T01:45:36.081Z,5.400
2023-03-29T01:46:35.835Z,5.800
2023-03-29T01:48:35.561Z,5.300
2023-03-29T01:49:35.852Z,5.700
2023-03-29T01:50:36.218Z,5.600
2023-03-29T01:51:35.540Z,5.900
2023-03-29T01:52:36.016Z,5.500
2023-03-29T01:53:36.268Z,5.500
2023-03-29T01:54:35.452Z,5.400
2023-03-29T01:55:35.681Z,5.200
2023-03-29T01:56:35.896Z,5.600
2023-03-29T01:57:36.468Z,5.200
2023-03-29T01:58:35.640Z,5.500
2023-03-29T01:59:35.884Z,5.600
2023-03-29T02:00:36.365Z,5.500
2023-03-29T02:01:35.764Z,5.900
2023-03-29T02:02:36.343Z,5.400
2023-03-29T02:03:35.999Z,6.000
2023-03-29T02:04:36.259Z,5.600
2023-03-29T02:05:35.443Z,5.900
2023-03-29T02:06:35.652Z,5.500
2023-03-29T02:07:35.840Z,5.300
2023-03-29T02:08:36.137Z,5.300
2023-03-29T02:09:35.316Z,5.800
2023-03-29T02:10:35.619Z,5.800
2023-03-29T02:11:36.200Z,5.100
2023-03-29T02:12:35.381Z,6.400
2023-03-29T02:13:35.476Z,5.500
2023-03-29T02:14:35.643Z,5.400
2023-03-29T02:15:35.852Z,5.200
2023-03-29T02:16:36.339Z,5.400
2023-03-29T02:17:35.572Z,5.500
2023-03-29T02:18:35.829Z,5.000
2023-03-29T02:19:36.000Z,6.100
2023-03-29T02:20:36.318Z,5.000
2023-03-29T02:21:35.649Z,5.100
2023-03-29T02:22:35.849Z,5.800
2023-03-29T02:23:36.132Z,5.400
2023-03-29T02:24:36.311Z,5.800
2023-03-29T02:25:35.436Z,5.100
2023-03-29T02:26:35.605Z,5.300
2023-03-29T02:27:35.823Z,4.900
2023-03-29T02:28:36.058Z,5.300
2023-03-29T02:29:36.334Z,5.400
2023-03-29T02:30:35.664Z,4.800
2023-03-29T02:31:36.451Z,5.200
2023-03-29T02:32:35.860Z,4.900
2023-03-29T02:33:36.288Z,5.600
2023-03-29T02:34:35.499Z,5.000
2023-03-29T02:35:36.021Z,5.600
2023-03-29T02:36:36.319Z,5.800
2023-03-29T02:37:35.475Z,5.800
2023-03-29T02:38:35.655Z,5.300
2023-03-29T02:39:35.839Z,4.900
2023-03-29T02:40:36.087Z,5.500
2023-03-29T02:41:35.272Z,5.700
2023-03-29T02:42:35.445Z,5.700
2023-03-29T02:43:35.687Z,6.000
2023-03-29T02:44:35.976Z,5.500
2023-03-29T02:45:36.386Z,6.000
2023-03-29T02:46:35.700Z,5.700
2023-03-29T02:47:36.181Z,5.100
2023-03-29T02:48:35.354Z,6.000
2023-03-29T02:49:35.593Z,5.400
2023-03-29T02:50:35.772Z,5.200
2023-03-29T02:51:37.458Z,6.300
2023-03-29T02:54:35.802Z,5.400
2023-03-29T02:55:36.288Z,6.100
2023-03-29T02:56:35.440Z,6.400
2023-03-29T02:57:36.035Z,5.800
2023-03-29T02:58:36.331Z,5.700
2023-03-29T02:59:35.720Z,5.500
2023-03-29T03:00:35.955Z,6.000
2023-03-29T03:01:37.044Z,5.900
2023-03-29T03:02:35.641Z,5.900
2023-03-29T03:03:37.496Z,6.200
2023-03-29T03:04:35.879Z,6.100
2023-03-29T03:05:36.217Z,6.500
2023-03-29T03:06:35.499Z,5.800
2023-03-29T03:07:35.863Z,6.000
2023-03-29T03:08:36.093Z,5.800
2023-03-29T03:09:36.284Z,5.600
2023-03-29T03:10:35.482Z,6.700
2023-03-29T03:11:35.988Z,6.500
2023-03-29T03:12:36.256Z,6.000
2023-03-29T03:13:35.601Z,6.200
2023-03-29T03:14:35.851Z,6.400
2023-03-29T03:15:36.209Z,5.800
2023-03-29T03:16:41.526Z,6.500
2023-03-29T03:17:45.431Z,6.100
2023-03-29T03:18:41.467Z,6.400
2023-03-29T03:19:41.807Z,6.900
2023-03-29T03:20:42.565Z,6.000
2023-03-29T03:21:42.895Z,5.900
2023-03-29T03:22:42.547Z,6.500
2023-03-29T03:23:42.853Z,6.300
2023-03-29T03:24:41.860Z,6.000
2023-03-29T03:25:42.340Z,7.000
2023-03-29T03:26:41.703Z,7.000
2023-03-29T03:27:42.012Z,6.400
2023-03-29T03:28:41.868Z,5.900
2023-03-29T03:29:42.121Z,6.800
2023-03-29T03:30:42.956Z,6.000
2023-03-29T03:31:44.052Z,6.200
2023-03-29T03:33:43.065Z,6.000
2023-03-29T03:34:41.553Z,6.400
2023-03-29T03:35:42.272Z,6.000
2023-03-29T03:36:42.312Z,5.400
2023-03-29T03:37:42.851Z,5.900
2023-03-29T03:38:42.388Z,7.200
2023-03-29T03:39:41.793Z,6.300
2023-03-29T03:40:41.428Z,7.100
2023-03-29T03:41:42.136Z,6.300
2023-03-29T03:42:41.476Z,6.400
2023-03-29T03:43:41.735Z,5.900
2023-03-29T03:44:43.466Z,6.400
2023-03-29T03:45:42.134Z,6.500
2023-03-29T03:46:41.598Z,6.100
2023-03-29T03:47:42.582Z,6.600
2023-03-29T03:48:42.913Z,5.900
2023-03-29T03:49:42.155Z,5.700
2023-03-29T03:50:43.007Z,6.000
2023-03-29T03:51:42.316Z,6.100
2023-03-29T03:53:41.971Z,5.500
2023-03-29T03:54:41.675Z,6.200
2023-03-29T03:55:41.975Z,5.800
2023-03-29T03:56:42.147Z,5.700
2023-03-29T03:57:41.599Z,6.000
2023-03-29T03:58:42.202Z,6.000
2023-03-29T03:59:41.868Z,6.000
2023-03-29T04:00:42.614Z,5.600
2023-03-29T04:01:42.492Z,5.900
2023-03-29T04:02:42.299Z,5.600
2023-03-29T04:03:43.758Z,5.400
2023-03-29T04:04:41.690Z,6.000
2023-03-29T04:05:42.083Z,6.000
2023-03-29T04:06:45.411Z,5.600
2023-03-29T04:07:41.557Z,5.300
2023-03-29T04:08:42.106Z,5.500
2023-03-29T04:09:41.699Z,5.800
2023-03-29T04:10:43.277Z,5.400
2023-03-29T04:11:43.350Z,6.000
2023-03-29T04:13:41.758Z,5.300
2023-03-29T04:14:42.249Z,6.000
2023-03-29T04:15:41.848Z,6.300
2023-03-29T04:16:42.146Z,5.500
2023-03-29T04:17:42.164Z,5.800
2023-03-29T04:18:42.218Z,5.700
2023-03-29T04:19:42.181Z,5.600
2023-03-29T04:20:42.835Z,5.900
2023-03-29T04:21:41.908Z,6.000
2023-03-29T04:22:41.795Z,5.300
2023-03-29T04:23:42.481Z,5.400
2023-03-29T04:26:41.568Z,5.400
2023-03-29T04:27:42.289Z,6.400
2023-03-29T04:28:43.214Z,5.900
2023-03-29T04:29:41.506Z,5.800
2023-03-29T04:30:42.024Z,5.800
2023-03-29T04:31:41.752Z,5.700
2023-03-29T04:32:41.940Z,5.900
2023-03-29T04:33:41.640Z,5.700
2023-03-29T04:34:41.728Z,6.000
2023-03-29T04:35:42.145Z,4.800
2023-03-29T04:36:41.549Z,5.300
2023-03-29T04:37:41.879Z,5.800
2023-03-29T04:39:42.064Z,5.700
2023-03-29T04:42:44.109Z,5.300
2023-03-29T04:45:42.594Z,5.900
2023-03-29T04:46:42.910Z,5.000
2023-03-29T04:47:41.644Z,5.000
2023-03-29T04:48:42.077Z,5.700
2023-03-29T04:49:44.142Z,5.000
2023-03-29T04:52:44.367Z,5.700
2023-03-29T04:55:41.583Z,6.200
2023-03-29T04:56:42.559Z,5.600
2023-03-29T04:57:42.112Z,5.600
2023-03-29T04:58:44.975Z,5.300
2023-03-29T05:00:41.131Z,5.500
2023-03-29T05:01:42.237Z,5.600
2023-03-29T05:02:42.502Z,5.900
2023-03-29T05:03:43.336Z,5.200
2023-03-29T05:04:41.918Z,5.400
2023-03-29T05:05:42.035Z,5.700
2023-03-29T05:06:43.353Z,5.500
2023-03-29T05:07:41.720Z,4.800
2023-03-29T05:08:42.043Z,5.500
2023-03-29T05:09:42.104Z,5.500
2023-03-29T05:10:41.257Z,5.900
2023-03-29T05:11:42.131Z,5.000
2023-03-29T05:12:42.552Z,5.900
2023-03-29T05:14:42.330Z,6.200
2023-03-29T05:15:43.203Z,6.200
2023-03-29T05:16:40.858Z,6.100
2023-03-29T05:17:41.479Z,5.700
2023-03-29T05:18:41.996Z,6.100
2023-03-29T05:19:41.762Z,6.000
2023-03-29T05:20:42.167Z,5.900
2023-03-29T05:21:43.720Z,6.000
2023-03-29T05:22:41.874Z,6.200
2023-03-29T05:23:42.354Z,6.500
2023-03-29T05:24:41.950Z,5.700
2023-03-29T05:25:42.209Z,6.600
2023-03-29T05:26:40.993Z,6.500
2023-03-29T05:27:42.190Z,6.300
2023-03-29T05:28:41.080Z,6.000
2023-03-29T05:29:41.400Z,6.200
2023-03-29T05:30:42.272Z,6.100
2023-03-29T05:31:43.326Z,6.200
2023-03-29T05:33:40.850Z,6.100
2023-03-29T05:34:42.226Z,6.900
2023-03-29T05:35:42.130Z,6.500
2023-03-29T05:36:42.096Z,6.500
2023-03-29T05:37:41.408Z,6.000
2023-03-29T05:38:41.954Z,6.400
2023-03-29T05:39:41.375Z,5.900
2023-03-29T05:40:46.181Z,6.400
2023-03-29T05:42:41.704Z,6.100
2023-03-29T05:43:42.124Z,6.500
2023-03-29T05:44:41.357Z,6.200
2023-03-29T05:45:41.984Z,5.900
2023-03-29T05:46:41.552Z,6.000
2023-03-29T05:47:42.500Z,6.400
2023-03-29T05:48:41.844Z,6.100
2023-03-29T05:49:42.108Z,6.200
2023-03-29T05:50:43.833Z,6.700
2023-03-29T05:51:41.536Z,6.100
2023-03-29T05:52:41.827Z,6.400
2023-03-29T05:53:44.225Z,6.800
2023-03-29T05:54:41.988Z,6.500
2023-03-29T05:55:41.959Z,6.800
2023-03-29T05:57:42.519Z,6.100
2023-03-29T05:59:41.498Z,6.600
2023-03-29T06:00:42.112Z,8.100
2023-03-29T06:01:41.413Z,7.300
2023-03-29T06:02:42.607Z,6.200
2023-03-29T06:03:42.270Z,6.700
2023-03-29T06:04:42.820Z,6.300
2023-03-29T06:05:42.161Z,6.900
2023-03-29T06:06:41.619Z,6.800
2023-03-29T06:07:43.196Z,6.400
2023-03-29T06:09:36.088Z,6.500
2023-03-29T06:10:36.330Z,7.100
2023-03-29T06:11:35.535Z,6.600
2023-03-29T06:12:35.712Z,7.500
2023-03-29T06:13:35.892Z,7.200
2023-03-29T06:14:36.055Z,6.900
2023-03-29T06:15:36.216Z,7.300
2023-03-29T06:16:35.546Z,7.100
2023-03-29T06:17:35.907Z,7.700
2023-03-29T06:18:36.336Z,7.400
2023-03-29T06:19:35.533Z,8.200
2023-03-29T06:20:35.850Z,10.100
2023-03-29T06:21:36.224Z,7.800
2023-03-29T06:22:35.420Z,7.400
2023-03-29T06:23:35.749Z,6.600
2023-03-29T06:24:36.318Z,6.300
2023-03-29T06:25:35.537Z,9.600
2023-03-29T06:26:35.708Z,10.200
2023-03-29T06:27:35.896Z,8.800
2023-03-29T06:28:36.141Z,6.800
2023-03-29T06:29:36.309Z,7.600
2023-03-29T06:30:35.532Z,6.700
2023-03-29T06:31:36.312Z,7.400
2023-03-29T06:32:35.861Z,7.500
2023-03-29T06:33:36.168Z,8.300
2023-03-29T06:34:38.472Z,7.400
2023-03-29T06:38:35.637Z,6.400
2023-03-29T06:39:36.117Z,6.900
2023-03-29T06:40:36.437Z,6.300
2023-03-29T06:41:35.586Z,6.800
2023-03-29T06:42:40.706Z,6.200
2023-03-29T06:43:36.255Z,7.300
2023-03-29T06:44:35.479Z,7.300
2023-03-29T06:45:39.424Z,7.000
2023-03-29T06:47:35.889Z,6.900
2023-03-29T06:48:36.637Z,6.900
2023-03-29T06:49:35.818Z,6.900
2023-03-29T06:51:38.997Z,7.500
2023-03-29T06:54:35.585Z,7.800
2023-03-29T06:55:35.803Z,7.700
2023-03-29T06:56:35.931Z,7.600
2023-03-29T06:57:36.365Z,7.300
2023-03-29T06:58:35.882Z,7.600
2023-03-29T06:59:36.565Z,7.000
2023-03-29T07:00:35.875Z,7.700
2023-03-29T07:01:36.498Z,7.700
2023-03-29T07:02:35.874Z,7.900
2023-03-29T07:03:36.525Z,7.600
2023-03-29T07:04:35.904Z,7.500
2023-03-29T07:05:36.241Z,7.500
2023-03-29T07:06:35.529Z,7.200
2023-03-29T07:07:35.934Z,7.800
2023-03-29T07:08:37.164Z,7.600
2023-03-29T07:09:36.836Z,6.900
2023-03-29T07:10:36.187Z,6.700
2023-03-29T07:11:36.504Z,7.700
2023-03-29T07:12:35.857Z,7.600
2023-03-29T07:13:36.426Z,7.300
2023-03-29T07:14:35.604Z,8.500
2023-03-29T07:15:35.852Z,7.900
2023-03-29T07:16:36.346Z,7.800
2023-03-29T07:17:35.748Z,7.500
2023-03-29T07:18:36.090Z,8.200
2023-03-29T07:19:36.206Z,8.800
2023-03-29T07:20:35.476Z,8.600
2023-03-29T07:21:38.848Z,7.800
2023-03-29T07:23:36.247Z,8.200
2023-03-29T07:24:35.401Z,9.100
2023-03-29T07:25:35.634Z,8.700
2023-03-29T07:27:03.039Z,7.700
2023-03-29T07:29:48.156Z,8.500
2023-03-29T07:30:48.327Z,8.800
2023-03-29T07:31:47.621Z,11.100
2023-03-29T07:32:48.750Z,8.600
2023-03-29T07:33:48.755Z,7.900
2023-03-29T07:34:48.461Z,8.000
2023-03-29T07:35:48.036Z,7.900
2023-03-29T07:36:47.352Z,8.400
2023-03-29T07:37:47.490Z,8.300
2023-03-29T07:38:47.707Z,8.200
2023-03-29T07:39:47.893Z,7.700
2023-03-29T07:40:48.092Z,7.800
2023-03-29T07:41:48.253Z,7.800
2023-03-29T07:42:47.450Z,8.100
2023-03-29T07:43:47.633Z,7.600
2023-03-29T07:44:47.964Z,8.100
2023-03-29T07:45:48.501Z,7.800
2023-03-29T07:46:47.803Z,8.400
2023-03-29T07:47:48.094Z,7.900
2023-03-29T07:48:51.219Z,7.600
2023-03-29T07:49:48.820Z,8.200
2023-03-29T07:50:47.938Z,9.000
2023-03-29T07:51:48.093Z,7.900
2023-03-29T07:52:47.400Z,7.500
2023-03-29T07:53:47.577Z,8.000
2023-03-29T07:54:47.825Z,7.800
2023-03-29T07:55:49.001Z,8.400
2023-03-29T07:57:47.702Z,7.200
2023-03-29T07:58:47.888Z,8.100
2023-03-29T07:59:48.060Z,7.700
2023-03-29T08:00:48.467Z,7.600
2023-03-29T08:01:48.675Z,7.800
2023-03-29T08:02:48.609Z,7.300
2023-03-29T08:03:48.608Z,6.800
2023-03-29T08:04:48.281Z,7.200
2023-03-29T08:05:57.507Z,8.000
2023-03-29T08:07:47.942Z,8.200
2023-03-29T08:08:48.224Z,7.200
2023-03-29T08:09:47.432Z,7.700
2023-03-29T08:10:47.709Z,8.000
2023-03-29T08:11:47.941Z,7.000
2023-03-29T08:12:48.091Z,8.200
2023-03-29T08:13:48.294Z,7.200
2023-03-29T08:14:47.446Z,7.600
2023-03-29T08:15:47.820Z,8.200
2023-03-29T08:16:49.677Z,7.000
2023-03-29T08:17:48.184Z,7.400
2023-03-29T08:18:51.128Z,8.300
2023-03-29T08:19:52.475Z,8.000
2023-03-29T08:21:47.875Z,7.000
2023-03-29T08:22:48.041Z,7.500
2023-03-29T08:23:48.354Z,7.400
2023-03-29T08:24:47.673Z,7.200
2023-03-29T08:25:47.860Z,7.400
2023-03-29T08:26:48.252Z,7.600
2023-03-29T08:27:47.452Z,7.100
2023-03-29T08:28:47.750Z,7.700
2023-03-29T08:29:48.265Z,7.000
2023-03-29T08:30:47.600Z,7.300
2023-03-29T08:31:48.191Z,7.200
2023-03-29T08:32:50.431Z,7.800
2023-03-29T08:33:48.079Z,7.000
2023-03-29T08:34:48.365Z,6.900
2023-03-29T08:35:47.588Z,8.200
2023-03-29T08:36:47.883Z,7.200
2023-03-29T08:37:48.091Z,6.700
2023-03-29T08:38:47.273Z,7.300
2023-03-29T08:39:47.412Z,8.100
2023-03-29T08:40:47.640Z,7.600
2023-03-29T08:41:47.918Z,7.400
2023-03-29T08:42:48.125Z,7.300
2023-03-29T08:43:48.280Z,6.500
2023-03-29T08:44:47.497Z,7.100
2023-03-29T08:45:50.993Z,7.200
2023-03-29T08:46:52.513Z,8.000
2023-03-29T08:48:48.119Z,6.900
2023-03-29T08:49:48.275Z,7.100
2023-03-29T08:50:47.560Z,18.300
2023-03-29T08:51:47.780Z,10.800
2023-03-29T08:52:47.948Z,9.200
2023-03-29T08:53:48.173Z,9.600
2023-03-29T08:54:47.514Z,8.600
2023-03-29T08:55:47.729Z,8.000
2023-03-29T08:56:52.615Z,6.500
2023-03-29T08:58:48.090Z,7.100
2023-03-29T08:59:48.307Z,7.000
2023-03-29T09:00:47.531Z,6.900
2023-03-29T09:01:50.022Z,6.500
2023-03-29T09:03:48.614Z,6.900
2023-03-29T09:04:47.737Z,6.400
2023-03-29T09:05:48.004Z,7.000
2023-03-29T09:06:48.192Z,6.700
2023-03-29T09:07:47.396Z,6.900
2023-03-29T09:08:47.959Z,6.700
2023-03-29T09:09:48.139Z,7.900
2023-03-29T09:10:47.304Z,7.100
2023-03-29T09:11:47.537Z,7.900
2023-03-29T09:12:47.933Z,8.400
2023-03-29T09:13:48.496Z,7.600
2023-03-29T09:14:47.660Z,6.900
2023-03-29T09:15:47.874Z,6.600
2023-03-29T09:16:48.812Z,7.600
2023-03-29T09:17:50.992Z,7.100
2023-03-29T09:19:48.017Z,6.900
2023-03-29T09:20:48.244Z,6.400
2023-03-29T09:21:47.444Z,6.800
2023-03-29T09:22:47.671Z,6.000
2023-03-29T09:23:47.863Z,7.100
2023-03-29T09:24:48.060Z,7.400
2023-03-29T09:25:56.555Z,6.600
2023-03-29T09:27:47.903Z,5.800
2023-03-29T09:28:48.172Z,6.300
2023-03-29T09:29:47.392Z,6.400
2023-03-29T09:30:47.828Z,6.300
2023-03-29T09:31:48.495Z,6.700
2023-03-29T09:32:47.938Z,6.300
2023-03-29T09:33:47.344Z,6.400
2023-03-29T09:34:49.884Z,7.100
2023-03-29T09:36:47.563Z,5.600
2023-03-29T09:37:47.820Z,7.300
2023-03-29T09:38:48.013Z,7.900
2023-03-29T09:39:48.293Z,7.500
2023-03-29T09:40:47.713Z,7.000
2023-03-29T09:41:47.936Z,7.500
2023-03-29T09:42:48.159Z,6.200
2023-03-29T09:43:47.289Z,6.200
2023-03-29T09:44:51.577Z,6.900
2023-03-29T09:46:47.993Z,7.400
2023-03-29T09:47:48.495Z,6.200
2023-03-29T09:48:47.825Z,5.800
2023-03-29T09:49:50.035Z,6.600
2023-03-29T09:50:53.155Z,5.400
2023-03-29T09:51:47.329Z,6.000
2023-03-29T09:52:47.452Z,6.100
2023-03-29T09:53:47.755Z,5.700
2023-03-29T09:54:47.966Z,6.200
2023-03-29T09:55:50.626Z,4.900
2023-03-29T09:56:47.927Z,5.100
2023-03-29T09:57:48.464Z,5.300
2023-03-29T09:58:47.731Z,5.100
2023-03-29T09:59:48.180Z,5.000
2023-03-29T10:00:47.487Z,5.100
2023-03-29T10:01:48.187Z,5.000
2023-03-29T10:02:47.979Z,5.000
2023-03-29T10:03:48.485Z,4.700
2023-03-29T10:04:47.802Z,4.200
2023-03-29T10:05:48.056Z,3.500
2023-03-29T10:06:48.193Z,3.700
2023-03-29T10:07:47.331Z,3.200
2023-03-29T10:08:48.038Z,3.100
2023-03-29T10:09:48.529Z,3.300
2023-03-29T10:10:47.761Z,3.600
2023-03-29T10:11:47.928Z,3.700
2023-03-29T10:12:48.818Z,3.700
2023-03-29T10:13:48.959Z,3.800
2023-03-29T10:14:48.167Z,3.400
2023-03-29T10:15:52.425Z,4.100
2023-03-29T10:16:47.932Z,3.900
2023-03-29T10:17:48.378Z,4.000
2023-03-29T10:18:47.605Z,3.900
2023-03-29T10:19:47.808Z,3.400
2023-03-29T10:20:48.061Z,3.900
2023-03-29T10:21:48.317Z,3.600
2023-03-29T10:22:47.491Z,3.700
2023-03-29T10:23:47.659Z,3.800
2023-03-29T10:24:47.926Z,3.500
2023-03-29T10:25:48.180Z,3.600
2023-03-29T10:26:47.404Z,3.500
2023-03-29T10:27:47.699Z,3.600
2023-03-29T10:28:48.040Z,3.800
2023-03-29T10:29:48.313Z,3.700
2023-03-29T10:30:47.653Z,4.200
2023-03-29T10:31:49.723Z,3.800
2023-03-29T10:34:47.481Z,3.800
2023-03-29T10:35:47.808Z,4.300
2023-03-29T10:36:48.094Z,4.100
2023-03-29T10:37:48.240Z,4.000
2023-03-29T10:38:47.683Z,3.700
2023-03-29T10:39:47.905Z,4.100
2023-03-29T10:40:48.251Z,4.100
2023-03-29T10:41:47.374Z,4.100
2023-03-29T10:42:47.580Z,4.300
2023-03-29T10:43:47.769Z,4.500
2023-03-29T10:44:50.091Z,3.500
2023-03-29T10:46:47.665Z,4.200
2023-03-29T10:47:48.134Z,4.100
2023-03-29T10:48:47.397Z,3.900
2023-03-29T10:49:48.033Z,3.700
2023-03-29T10:50:47.799Z,3.900
2023-03-29T10:51:47.991Z,3.400
2023-03-29T10:52:48.236Z,3.500
2023-03-29T10:53:47.598Z,3.500
2023-03-29T10:54:47.844Z,3.200
2023-03-29T10:55:48.040Z,2.800
2023-03-29T10:56:48.268Z,3.600
2023-03-29T10:57:48.076Z,3.500
2023-03-29T10:58:48.309Z,3.600
2023-03-29T10:59:47.498Z,3.200
2023-03-29T11:00:47.844Z,3.300
2023-03-29T11:01:48.465Z,3.100
2023-03-29T11:02:48.194Z,3.300
2023-03-29T11:03:50.089Z,3.400
2023-03-29T11:04:47.401Z,3.200
2023-03-29T11:05:47.665Z,3.300
2023-03-29T11:06:47.847Z,2.900
2023-03-29T11:07:48.098Z,3.300
2023-03-29T11:08:47.896Z,3.300
2023-03-29T11:09:48.168Z,3.500
2023-03-29T11:10:47.422Z,3.200
2023-03-29T11:11:47.656Z,3.300
2023-03-29T11:12:50.960Z,3.300
2023-03-29T11:13:48.205Z,3.000
2023-03-29T11:14:47.424Z,3.400
2023-03-29T11:15:47.684Z,3.300
2023-03-29T11:16:48.145Z,3.600
2023-03-29T11:17:47.678Z,3.100
2023-03-29T11:18:48.092Z,3.200
2023-03-29T11:19:48.467Z,3.500
2023-03-29T11:20:47.686Z,2.800
2023-03-29T11:21:47.873Z,3.100
2023-03-29T11:22:48.168Z,2.600
2023-03-29T11:23:47.386Z,3.600
2023-03-29T11:24:48.720Z,6.900
2023-03-29T11:25:47.932Z,3.900
2023-03-29T11:26:48.216Z,2.700
2023-03-29T11:27:47.505Z,3.000
2023-03-29T11:28:47.808Z,3.200
2023-03-29T11:29:48.223Z,2.900
2023-03-29T11:30:47.949Z,2.700
2023-03-29T11:31:48.605Z,2.900
2023-03-29T11:32:48.031Z,3.400
2023-03-29T11:33:48.325Z,3.300
2023-03-29T11:34:47.532Z,3.500
2023-03-29T11:35:47.893Z,3.300
2023-03-29T11:36:47.502Z,3.200
2023-03-29T11:37:47.717Z,3.400
2023-03-29T11:38:47.920Z,3.000
2023-03-29T11:39:48.254Z,2.700
2023-03-29T11:40:47.503Z,3.000
2023-03-29T11:41:47.770Z,3.700
2023-03-29T11:42:48.037Z,2.900
2023-03-29T11:43:48.289Z,3.300
2023-03-29T11:44:48.400Z,2.700
2023-03-29T11:45:47.465Z,2.900
2023-03-29T11:46:48.008Z,2.700
2023-03-29T11:47:48.656Z,2.900
2023-03-29T11:48:47.830Z,3.000
2023-03-29T11:49:48.136Z,3.000
2023-03-29T11:50:48.723Z,3.100
2023-03-29T11:51:47.940Z,2.900
2023-03-29T11:52:48.143Z,2.900
2023-03-29T11:53:47.347Z,2.600
2023-03-29T11:54:47.578Z,2.800
2023-03-29T11:55:47.783Z,2.600
2023-03-29T11:56:47.999Z,2.800
2023-03-29T11:57:48.346Z,3.200
2023-03-29T11:58:49.017Z,2.400
2023-03-29T11:59:48.265Z,3.000
2023-03-29T12:00:47.505Z,3.000
2023-03-29T12:01:48.034Z,3.300
2023-03-29T12:02:49.013Z,3.300
2023-03-29T12:03:48.787Z,3.400
2023-03-29T12:05:47.714Z,2.900
2023-03-29T12:06:47.999Z,3.000
2023-03-29T12:07:48.293Z,3.200
2023-03-29T12:08:47.757Z,3.300
2023-03-29T12:09:48.265Z,3.400
2023-03-29T12:10:49.465Z,3.300
2023-03-29T12:12:47.962Z,3.300
2023-03-29T12:13:48.307Z,3.600
2023-03-29T12:14:47.699Z,3.000
2023-03-29T12:15:47.924Z,3.100
2023-03-29T12:16:48.549Z,3.000
2023-03-29T12:17:48.129Z,2.800
2023-03-29T12:18:47.552Z,2.700
2023-03-29T12:20:48.321Z,3.700
2023-03-29T12:21:47.559Z,2.800
2023-03-29T12:22:47.919Z,2.600
2023-03-29T12:23:48.259Z,3.300
2023-03-29T12:24:47.546Z,2.700
2023-03-29T12:25:47.832Z,2.400
2023-03-29T12:26:48.111Z,2.600
2023-03-29T12:27:47.412Z,2.600
2023-03-29T12:28:47.615Z,2.500
2023-03-29T12:29:47.849Z,2.600
2023-03-29T12:30:50.273Z,2.500
2023-03-29T12:33:50.440Z,3.200
2023-03-29T12:34:47.651Z,2.400
2023-03-29T12:35:47.933Z,2.800
2023-03-29T12:36:48.244Z,2.800
2023-03-29T12:37:47.408Z,2.900
2023-03-29T12:38:48.540Z,3.100
2023-03-29T12:39:47.933Z,3.200
2023-03-29T12:40:48.137Z,2.900
2023-03-29T12:41:47.404Z,2.900
2023-03-29T12:42:47.651Z,2.700
2023-03-29T12:43:47.825Z,2.400
2023-03-29T12:44:48.055Z,2.700
2023-03-29T12:45:48.359Z,2.700
2023-03-29T12:46:47.808Z,2.400
2023-03-29T12:47:48.363Z,2.200
2023-03-29T12:48:47.743Z,2.600
2023-03-29T12:49:47.915Z,2.400
2023-03-29T12:50:48.160Z,2.400
2023-03-29T12:51:47.306Z,2.400
2023-03-29T12:52:47.487Z,2.900
2023-03-29T12:53:47.675Z,2.500
2023-03-29T12:54:47.954Z,3.100
2023-03-29T12:55:48.241Z,2.900
2023-03-29T12:56:47.748Z,2.800
2023-03-29T12:57:48.117Z,2.800
2023-03-29T12:58:48.288Z,3.000
2023-03-29T12:59:47.614Z,3.600
2023-03-29T13:00:47.974Z,3.200
2023-03-29T13:01:48.723Z,2.900
2023-03-29T13:02:48.581Z,3.400
2023-03-29T13:03:47.992Z,3.400
2023-03-29T13:04:48.363Z,3.200
2023-03-29T13:05:47.925Z,3.300
2023-03-29T13:06:48.431Z,3.300
2023-03-29T13:07:49.217Z,3.800
2023-03-29T13:08:48.705Z,3.300
2023-03-29T13:09:47.871Z,3.600
2023-03-29T13:10:48.091Z,3.500
2023-03-29T13:11:48.331Z,4.000
2023-03-29T13:12:50.678Z,3.100
2023-03-29T13:13:48.138Z,2.900
2023-03-29T13:14:47.320Z,3.100
2023-03-29T13:15:47.822Z,3.000
2023-03-29T13:16:48.253Z,3.000
2023-03-29T13:17:47.789Z,3.000
2023-03-29T13:18:48.111Z,3.100
2023-03-29T13:19:48.431Z,2.900
2023-03-29T13:20:47.660Z,3.400
2023-03-29T13:21:47.927Z,3.100
2023-03-29T13:22:48.237Z,3.800
2023-03-29T13:23:48.978Z,3.300
2023-03-29T13:24:48.216Z,3.200
2023-03-29T13:25:47.341Z,2.900
2023-03-29T13:26:47.601Z,3.200
2023-03-29T13:27:47.866Z,3.000
2023-03-29T13:28:48.076Z,2.900
2023-03-29T13:29:48.408Z,2.400
2023-03-29T13:30:47.734Z,2.800
2023-03-29T13:31:48.616Z,2.900
2023-03-29T13:32:48.434Z,3.000
2023-03-29T13:33:47.718Z,2.800
2023-03-29T13:34:48.110Z,3.100
2023-03-29T13:35:48.456Z,2.900
2023-03-29T13:36:50.114Z,2.800
2023-03-29T13:38:47.600Z,2.500
2023-03-29T13:39:47.923Z,2.900
2023-03-29T13:40:48.235Z,2.600
2023-03-29T13:41:47.449Z,2.700
2023-03-29T13:42:48.724Z,2.400
2023-03-29T13:44:48.161Z,2.300
2023-03-29T13:45:47.373Z,2.600
2023-03-29T13:46:47.704Z,2.400
2023-03-29T13:48:04.503Z,2.300